createdAt,value
2017-09-30T00:01:41.920Z,24.90
2017-09-30T00:04:12.704Z,26.30
2017-09-30T00:06:43.683Z,30.30
2017-09-30T00:09:15.774Z,32.03
2017-09-30T00:11:46.774Z,37.97
2017-09-30T00:14:19.037Z,32.20
2017-09-30T00:16:50.031Z,37.10
2017-09-30T00:19:20.774Z,31.23
2017-09-30T00:21:52.336Z,33.53
2017-09-30T00:24:22.923Z,30.90
2017-09-30T00:26:54.646Z,33.40
2017-09-30T00:29:26.462Z,25.63
2017-09-30T00:31:57.541Z,25.23
2017-09-30T00:34:28.789Z,25.57
2017-09-30T00:36:59.605Z,27.37
2017-09-30T00:39:30.512Z,19.90
2017-09-30T00:42:01.495Z,24.17
2017-09-30T00:44:33.500Z,19.40
2017-09-30T00:47:03.894Z,16.33
2017-09-30T00:49:34.699Z,19.90
2017-09-30T00:52:05.427Z,16.80
2017-09-30T00:54:35.714Z,18.17
2017-09-30T00:57:06.051Z,18.80
2017-09-30T00:59:36.029Z,21.80
2017-09-30T01:02:07.129Z,24.80
2017-09-30T01:04:38.131Z,32.33
2017-09-30T01:07:08.577Z,39.53
2017-09-30T01:09:39.357Z,33.10
2017-09-30T01:12:10.294Z,31.23
2017-09-30T01:14:41.048Z,29.70
2017-09-30T01:17:13.143Z,32.70
2017-09-30T01:19:44.198Z,24.20
2017-09-30T01:22:15.826Z,47.70
2017-09-30T01:24:46.617Z,29.83
2017-09-30T01:27:17.175Z,46.57
2017-09-30T01:29:47.860Z,29.87
2017-09-30T01:32:18.894Z,24.20
2017-09-30T01:34:50.084Z,30.27
2017-09-30T01:37:21.995Z,27.77
2017-09-30T01:39:53.856Z,29.30
2017-09-30T01:42:25.641Z,31.70
2017-09-30T01:44:56.213Z,27.57
2017-09-30T01:47:27.905Z,30.30
2017-09-30T01:49:59.014Z,27.33
2017-09-30T01:52:29.851Z,22.90
2017-09-30T01:55:00.758Z,31.10
2017-09-30T01:57:32.001Z,27.37
2017-09-30T02:00:02.714Z,27.00
2017-09-30T02:02:33.188Z,28.30
2017-09-30T02:05:04.856Z,29.93
2017-09-30T02:07:35.604Z,37.97
2017-09-30T02:10:06.558Z,34.92
2017-09-30T02:12:37.238Z,22.02
2017-09-30T02:15:08.884Z,23.85
2017-09-30T02:17:39.784Z,18.67
2017-09-30T02:20:11.126Z,19.10
2017-09-30T02:22:42.292Z,13.10
2017-09-30T02:25:13.230Z,18.37
2017-09-30T02:27:43.951Z,16.70
2017-09-30T02:30:14.640Z,21.17
2017-09-30T02:32:46.603Z,18.80
2017-09-30T02:35:17.767Z,19.65
2017-09-30T02:37:49.147Z,22.35
2017-09-30T02:40:20.030Z,22.80
2017-09-30T02:42:51.965Z,18.87
2017-09-30T02:45:23.699Z,22.00
2017-09-30T02:47:54.412Z,24.77
2017-09-30T02:50:25.599Z,17.92
2017-09-30T02:52:57.700Z,18.77
2017-09-30T02:55:28.968Z,26.00
2017-09-30T02:57:59.489Z,26.17
2017-09-30T03:00:30.387Z,22.80
2017-09-30T03:03:02.366Z,21.52
2017-09-30T03:05:33.821Z,18.67
2017-09-30T03:08:05.220Z,26.55
2017-09-30T03:10:37.001Z,22.10
2017-09-30T03:13:08.261Z,18.33
2017-09-30T03:15:39.184Z,22.33
2017-09-30T03:18:10.892Z,22.62
2017-09-30T03:20:42.525Z,18.62
2017-09-30T03:23:13.595Z,18.48
2017-09-30T03:25:44.765Z,20.73
2017-09-30T03:28:15.517Z,19.60
2017-09-30T03:30:46.176Z,22.70
2017-09-30T03:33:16.798Z,29.12
2017-09-30T03:35:47.660Z,25.40
2017-09-30T03:38:18.153Z,24.42
2017-09-30T03:40:49.936Z,23.02
2017-09-30T03:43:20.171Z,14.45
2017-09-30T03:45:50.954Z,21.00
2017-09-30T03:48:22.003Z,16.73
2017-09-30T03:50:53.527Z,13.25
2017-09-30T03:53:24.537Z,14.25
2017-09-30T03:55:55.449Z,13.88
2017-09-30T03:58:26.472Z,17.02
2017-09-30T04:00:58.090Z,19.15
2017-09-30T04:03:28.934Z,19.27
2017-09-30T04:05:59.808Z,26.10
2017-09-30T04:08:30.334Z,16.75
2017-09-30T04:11:01.033Z,22.62
2017-09-30T04:13:31.899Z,21.48
2017-09-30T04:16:03.615Z,19.45
2017-09-30T04:18:34.353Z,19.87
2017-09-30T04:21:05.396Z,20.23
2017-09-30T04:23:36.074Z,22.40
2017-09-30T04:26:07.294Z,16.77
2017-09-30T04:28:38.015Z,16.92
2017-09-30T04:31:09.364Z,26.42
2017-09-30T04:33:40.129Z,21.73
2017-09-30T04:36:11.484Z,20.15
2017-09-30T04:38:42.453Z,19.83
2017-09-30T04:41:13.138Z,27.58
2017-09-30T04:43:44.448Z,19.90
2017-09-30T04:46:15.257Z,20.42
2017-09-30T04:48:45.968Z,17.52
2017-09-30T04:51:16.828Z,26.87
2017-09-30T04:53:47.589Z,19.27
2017-09-30T04:56:18.433Z,18.65
2017-09-30T04:58:49.965Z,13.73
2017-09-30T05:01:21.169Z,18.90
2017-09-30T05:03:51.844Z,20.12
2017-09-30T05:06:22.735Z,17.87
2017-09-30T05:08:53.995Z,22.52
2017-09-30T05:11:24.738Z,23.55
2017-09-30T05:13:55.614Z,21.33
2017-09-30T05:16:26.316Z,18.65
2017-09-30T05:18:57.323Z,16.12
2017-09-30T05:21:28.562Z,20.20
2017-09-30T05:23:59.585Z,18.20
2017-09-30T05:26:31.317Z,23.08
2017-09-30T05:29:01.656Z,20.05
2017-09-30T05:31:34.298Z,21.23
2017-09-30T05:34:05.313Z,21.05
2017-09-30T05:36:36.799Z,26.37
2017-09-30T05:39:07.965Z,29.67
2017-09-30T05:41:38.949Z,23.77
2017-09-30T05:44:09.783Z,29.73
2017-09-30T05:46:41.480Z,22.40
2017-09-30T05:49:12.613Z,21.12
2017-09-30T05:51:43.239Z,28.58
2017-09-30T05:54:13.667Z,22.40
2017-09-30T05:56:45.184Z,20.95
2017-09-30T05:59:16.924Z,21.27
2017-09-30T06:01:48.651Z,22.13
2017-09-30T06:04:19.320Z,21.62
2017-09-30T06:06:51.231Z,24.08
2017-09-30T06:09:21.985Z,15.50
2017-09-30T06:11:53.135Z,18.60
2017-09-30T06:14:23.962Z,17.42
2017-09-30T06:16:54.899Z,19.23
2017-09-30T06:19:26.366Z,16.40
2017-09-30T06:21:56.959Z,17.15
2017-09-30T06:24:27.753Z,17.90
2017-09-30T06:26:59.406Z,20.88
2017-09-30T06:29:30.608Z,20.37
2017-09-30T06:32:01.394Z,19.62
2017-09-30T06:34:32.159Z,19.27
2017-09-30T06:37:02.870Z,19.77
2017-09-30T06:39:34.496Z,16.40
2017-09-30T06:42:06.101Z,21.70
2017-09-30T06:44:36.952Z,21.73
2017-09-30T06:47:08.097Z,20.88
2017-09-30T06:49:38.903Z,20.60
2017-09-30T06:52:10.157Z,23.15
2017-09-30T06:54:40.789Z,22.20
2017-09-30T06:57:11.490Z,23.33
2017-09-30T06:59:43.772Z,27.15
2017-09-30T07:02:14.777Z,28.33
2017-09-30T07:04:45.832Z,34.60
2017-09-30T07:07:17.514Z,43.30
2017-09-30T07:09:48.103Z,32.67
2017-09-30T07:12:18.371Z,39.10
2017-09-30T07:14:49.429Z,49.38
2017-09-30T07:17:21.477Z,54.97
2017-09-30T07:19:54.516Z,48.83
2017-09-30T07:22:26.670Z,48.97
2017-09-30T07:24:58.424Z,51.85
2017-09-30T07:27:29.282Z,43.20
2017-09-30T07:30:00.120Z,43.17
2017-09-30T07:32:31.122Z,47.80
2017-09-30T07:35:03.211Z,48.40
2017-09-30T07:37:34.390Z,52.80
2017-09-30T07:40:06.243Z,48.63
2017-09-30T07:42:38.913Z,44.20
2017-09-30T07:45:09.953Z,45.85
2017-09-30T07:47:41.555Z,37.90
2017-09-30T07:50:12.568Z,32.35
2017-09-30T07:52:44.552Z,23.70
2017-09-30T07:55:16.350Z,27.92
2017-09-30T07:57:47.717Z,19.00
2017-09-30T08:00:19.897Z,25.80
2017-09-30T08:02:51.347Z,16.42
2017-09-30T08:05:22.693Z,19.70
2017-09-30T08:07:54.252Z,12.88
2017-09-30T08:10:25.546Z,15.73
2017-09-30T08:12:56.748Z,10.32
2017-09-30T08:15:27.817Z,14.13
2017-09-30T08:17:58.880Z,13.35
2017-09-30T08:20:30.377Z,16.33
2017-09-30T08:23:01.877Z,10.43
2017-09-30T08:25:33.170Z,9.83
2017-09-30T08:28:04.608Z,11.90
2017-09-30T08:30:35.712Z,18.48
2017-09-30T08:33:07.268Z,11.35
2017-09-30T08:35:38.525Z,17.12
2017-09-30T08:38:10.454Z,11.50
2017-09-30T08:40:41.942Z,18.73
2017-09-30T08:43:13.096Z,11.73
2017-09-30T08:45:43.944Z,19.10
2017-09-30T08:48:15.750Z,19.63
2017-09-30T08:50:46.550Z,16.25
2017-09-30T08:53:17.854Z,10.77
2017-09-30T08:55:49.477Z,15.50
2017-09-30T08:58:21.127Z,10.65
2017-09-30T09:00:52.014Z,11.48
2017-09-30T09:03:22.809Z,18.98
2017-09-30T09:05:54.274Z,26.02
2017-09-30T09:08:25.535Z,29.35
2017-09-30T09:10:56.759Z,30.88
2017-09-30T09:13:28.541Z,37.38
2017-09-30T09:15:59.499Z,28.98
2017-09-30T09:18:32.135Z,33.17
2017-09-30T09:21:03.137Z,35.28
2017-09-30T09:23:35.112Z,36.95
2017-09-30T09:26:05.690Z,31.23
2017-09-30T09:28:36.421Z,27.85
2017-09-30T09:31:08.685Z,28.73
2017-09-30T09:33:40.392Z,25.58
2017-09-30T09:36:12.604Z,29.33
2017-09-30T09:38:43.761Z,25.48
2017-09-30T09:41:15.101Z,31.17
2017-09-30T09:43:47.194Z,31.77
2017-09-30T09:46:18.169Z,38.95
2017-09-30T09:48:49.034Z,54.28
2017-09-30T09:51:19.840Z,45.67
2017-09-30T09:53:51.669Z,37.28
2017-09-30T09:56:23.805Z,40.08
2017-09-30T09:58:56.150Z,37.63
2017-09-30T10:01:26.770Z,29.08
2017-09-30T10:03:57.109Z,36.70
2017-09-30T10:06:28.322Z,23.55
2017-09-30T10:08:59.043Z,27.55
2017-09-30T10:11:30.492Z,23.60
2017-09-30T10:14:01.678Z,31.52
2017-09-30T10:16:32.544Z,35.55
2017-09-30T10:19:03.294Z,37.45
2017-09-30T10:21:33.792Z,36.72
2017-09-30T10:24:06.240Z,32.35
2017-09-30T10:26:37.289Z,32.00
2017-09-30T10:29:08.066Z,38.80
2017-09-30T10:31:39.342Z,43.22
2017-09-30T10:34:10.401Z,38.72
2017-09-30T10:36:41.452Z,33.97
2017-09-30T10:39:12.034Z,28.85
2017-09-30T10:41:43.281Z,37.58
2017-09-30T10:44:13.858Z,43.00
2017-09-30T10:46:45.391Z,32.05
2017-09-30T10:49:16.201Z,37.33
2017-09-30T10:51:46.932Z,35.20
2017-09-30T10:54:18.599Z,37.40
2017-09-30T10:56:49.925Z,39.03
2017-09-30T10:59:20.184Z,29.35
2017-09-30T11:01:51.152Z,44.70
2017-09-30T11:04:21.744Z,27.00
2017-09-30T11:06:52.827Z,38.75
2017-09-30T11:09:23.463Z,34.63
2017-09-30T11:11:53.588Z,33.40
2017-09-30T11:14:24.391Z,43.40
2017-09-30T11:16:55.158Z,42.88
2017-09-30T11:19:26.137Z,38.00
2017-09-30T11:21:56.745Z,40.25
2017-09-30T11:24:27.226Z,38.10
2017-09-30T11:26:58.160Z,32.00
2017-09-30T11:29:28.806Z,44.75
2017-09-30T11:32:00.408Z,44.20
2017-09-30T11:34:31.336Z,43.60
2017-09-30T11:37:02.089Z,38.22
2017-09-30T11:39:33.754Z,45.42
2017-09-30T11:42:05.074Z,33.58
2017-09-30T11:44:35.659Z,43.53
2017-09-30T11:47:06.255Z,30.90
2017-09-30T11:49:37.553Z,33.28
2017-09-30T11:52:08.459Z,33.67
2017-09-30T11:54:39.696Z,27.70
2017-09-30T11:57:10.395Z,44.33
2017-09-30T11:59:41.055Z,28.67
2017-09-30T12:02:12.815Z,40.15
2017-09-30T12:04:43.733Z,43.17
2017-09-30T12:07:14.669Z,40.33
2017-09-30T12:09:45.265Z,35.17
2017-09-30T12:12:16.842Z,23.23
2017-09-30T12:14:47.625Z,24.48
2017-09-30T12:17:18.851Z,18.50
2017-09-30T12:19:50.417Z,25.83
2017-09-30T12:22:21.882Z,19.42
2017-09-30T12:24:53.679Z,16.20
2017-09-30T12:27:24.753Z,19.23
2017-09-30T12:29:56.232Z,22.00
2017-09-30T12:32:27.961Z,17.98
2017-09-30T12:34:58.522Z,32.30
2017-09-30T12:37:29.103Z,25.42
2017-09-30T12:39:59.697Z,21.73
2017-09-30T12:42:30.173Z,29.98
2017-09-30T12:45:01.334Z,18.60
2017-09-30T12:47:32.189Z,25.45
2017-09-30T12:50:02.769Z,21.87
2017-09-30T12:52:34.160Z,25.83
2017-09-30T12:55:05.275Z,22.52
2017-09-30T12:57:36.230Z,21.98
2017-09-30T13:00:07.308Z,18.35
2017-09-30T13:02:37.531Z,19.12
2017-09-30T13:05:08.766Z,14.73
2017-09-30T13:07:39.019Z,17.12
2017-09-30T13:10:09.476Z,20.62
2017-09-30T13:12:40.816Z,16.48
2017-09-30T13:15:12.452Z,19.12
2017-09-30T13:17:43.246Z,18.00
2017-09-30T13:20:13.949Z,18.58
2017-09-30T13:22:45.021Z,16.05
2017-09-30T13:25:15.750Z,15.75
2017-09-30T13:27:46.754Z,12.88
2017-09-30T13:30:18.347Z,17.98
2017-09-30T13:32:50.036Z,14.05
2017-09-30T13:35:21.277Z,25.17
2017-09-30T13:37:52.751Z,14.45
2017-09-30T13:40:23.814Z,17.45
2017-09-30T13:42:54.606Z,16.45
2017-09-30T13:45:25.601Z,23.02
2017-09-30T13:47:56.296Z,13.90
2017-09-30T13:50:26.633Z,26.87
2017-09-30T13:52:57.024Z,15.70
2017-09-30T13:55:27.473Z,18.05
2017-09-30T13:57:58.271Z,18.87
2017-09-30T14:00:30.070Z,15.50
2017-09-30T14:03:01.261Z,25.45
2017-09-30T14:05:31.962Z,19.45
2017-09-30T14:08:03.017Z,15.68
2017-09-30T14:10:33.966Z,14.52
2017-09-30T14:13:05.567Z,14.35
2017-09-30T14:15:36.898Z,13.82
2017-09-30T14:18:07.695Z,17.48
2017-09-30T14:20:39.421Z,12.13
2017-09-30T14:23:10.622Z,16.27
2017-09-30T14:25:42.433Z,17.25
2017-09-30T14:28:13.722Z,11.43
2017-09-30T14:30:44.825Z,12.18
2017-09-30T14:33:16.447Z,15.88
2017-09-30T14:35:47.784Z,11.10
2017-09-30T14:38:18.916Z,10.57
2017-09-30T14:40:50.952Z,11.77
2017-09-30T14:43:21.934Z,21.75
2017-09-30T14:45:52.744Z,15.98
2017-09-30T14:48:23.841Z,12.43
2017-09-30T14:50:55.410Z,14.70
2017-09-30T14:53:26.631Z,11.70
2017-09-30T14:55:57.966Z,9.32
2017-09-30T14:58:28.838Z,12.37
2017-09-30T15:00:59.713Z,14.68
2017-09-30T15:03:30.436Z,18.62
2017-09-30T15:06:02.279Z,16.45
2017-09-30T15:08:34.600Z,11.98
2017-09-30T15:11:05.439Z,12.82
2017-09-30T15:13:36.514Z,15.02
2017-09-30T15:16:08.654Z,15.90
2017-09-30T15:18:39.247Z,12.23
2017-09-30T15:21:10.411Z,11.60
2017-09-30T15:23:41.122Z,10.38
2017-09-30T15:26:12.609Z,16.15
2017-09-30T15:28:43.491Z,11.93
2017-09-30T15:31:14.590Z,9.55
2017-09-30T15:33:46.070Z,14.68
2017-09-30T15:36:17.116Z,10.43
2017-09-30T15:38:47.899Z,12.32
2017-09-30T15:41:19.914Z,5.68
2017-09-30T15:43:50.709Z,11.02
2017-09-30T15:46:22.075Z,9.13
2017-09-30T15:48:53.342Z,14.25
2017-09-30T15:51:27.526Z,16.67
2017-09-30T15:53:59.106Z,12.73
2017-09-30T15:56:30.358Z,12.10
2017-09-30T15:59:01.327Z,13.10
2017-09-30T16:01:31.956Z,14.80
2017-09-30T16:04:02.960Z,11.15
2017-09-30T16:06:34.009Z,21.35
2017-09-30T16:09:05.294Z,17.77
2017-09-30T16:11:35.777Z,13.32
2017-09-30T16:14:07.493Z,18.92
2017-09-30T16:16:38.451Z,12.90
2017-09-30T16:19:09.415Z,19.12
2017-09-30T16:21:40.300Z,12.73
2017-09-30T16:24:11.084Z,23.05
2017-09-30T16:26:42.697Z,15.32
2017-09-30T16:29:13.362Z,21.17
2017-09-30T16:31:43.957Z,11.40
2017-09-30T16:34:14.524Z,13.45
2017-09-30T16:36:45.342Z,15.00
2017-09-30T16:39:16.031Z,11.90
2017-09-30T16:41:47.010Z,25.83
2017-09-30T16:44:18.405Z,17.02
2017-09-30T16:46:50.479Z,22.45
2017-09-30T16:49:21.505Z,19.95
2017-09-30T16:51:53.363Z,19.30
2017-09-30T16:54:24.309Z,13.73
2017-09-30T16:56:55.088Z,14.07
2017-09-30T16:59:27.049Z,18.60
2017-09-30T17:01:59.570Z,17.40
2017-09-30T17:04:30.144Z,25.12
2017-09-30T17:07:01.816Z,29.55
2017-09-30T17:09:32.477Z,18.50
2017-09-30T17:12:04.037Z,31.55
2017-09-30T17:14:35.571Z,13.25
2017-09-30T17:17:06.591Z,13.95
2017-09-30T17:19:37.318Z,18.33
2017-09-30T17:22:08.063Z,11.20
2017-09-30T17:24:38.753Z,25.20
2017-09-30T17:27:09.615Z,18.12
2017-09-30T17:29:40.216Z,13.30
2017-09-30T17:32:11.869Z,17.52
2017-09-30T17:34:43.509Z,18.27
2017-09-30T17:37:15.277Z,15.65
2017-09-30T17:39:45.570Z,14.73
2017-09-30T17:42:16.015Z,21.02
2017-09-30T17:44:47.644Z,15.48
2017-09-30T17:47:18.455Z,15.52
2017-09-30T17:49:50.967Z,18.30
2017-09-30T17:52:22.688Z,15.23
2017-09-30T17:54:53.028Z,18.42
2017-09-30T17:57:23.798Z,11.73
2017-09-30T17:59:55.004Z,11.25
2017-09-30T18:02:25.692Z,11.52
2017-09-30T18:04:56.074Z,14.68
2017-09-30T18:07:27.091Z,13.93
2017-09-30T18:09:57.733Z,10.43
2017-09-30T18:12:29.035Z,18.35
2017-09-30T18:14:59.903Z,26.45
2017-09-30T18:17:30.706Z,18.27
2017-09-30T18:20:01.292Z,13.57
2017-09-30T18:22:32.189Z,10.38
2017-09-30T18:25:03.181Z,13.18
2017-09-30T18:27:33.891Z,16.35
2017-09-30T18:30:04.721Z,16.65
2017-09-30T18:32:35.844Z,11.23
2017-09-30T18:35:06.812Z,12.90
2017-09-30T18:37:38.106Z,14.13
2017-09-30T18:40:08.787Z,13.23
2017-09-30T18:42:39.510Z,13.10
2017-09-30T18:45:10.958Z,9.60
2017-09-30T18:47:41.783Z,16.95
2017-09-30T18:50:12.716Z,9.60
2017-09-30T18:52:44.579Z,13.35
2017-09-30T18:55:15.258Z,11.68
2017-09-30T18:57:46.439Z,17.45
2017-09-30T19:00:16.972Z,14.32
2017-09-30T19:02:47.891Z,10.20
2017-09-30T19:05:18.568Z,11.77
2017-09-30T19:07:49.305Z,14.63
2017-09-30T19:10:20.367Z,8.30
2017-09-30T19:12:51.175Z,19.12
2017-09-30T19:15:21.762Z,8.88
2017-09-30T19:17:53.247Z,16.12
2017-09-30T19:20:24.296Z,19.67
2017-09-30T19:22:56.097Z,29.02
2017-09-30T19:25:26.793Z,20.83
2017-09-30T19:27:58.959Z,14.77
2017-09-30T19:30:30.091Z,17.87
2017-09-30T19:33:01.149Z,13.93
2017-09-30T19:35:31.638Z,18.40
2017-09-30T19:38:03.228Z,10.63
2017-09-30T19:40:34.012Z,15.80
2017-09-30T19:43:05.702Z,13.40
2017-09-30T19:45:36.583Z,17.45
2017-09-30T19:48:07.212Z,10.40
2017-09-30T19:50:38.609Z,11.00
2017-09-30T19:53:11.357Z,11.80
2017-09-30T19:55:42.709Z,11.75
2017-09-30T19:58:13.354Z,9.52
2017-09-30T20:00:44.754Z,18.67
2017-09-30T20:03:15.446Z,12.05
2017-09-30T20:05:46.249Z,19.67
2017-09-30T20:08:18.137Z,14.25
2017-09-30T20:10:49.232Z,14.23
2017-09-30T20:13:21.014Z,13.50
2017-09-30T20:15:53.299Z,19.15
2017-09-30T20:18:25.884Z,19.33
2017-09-30T20:20:56.516Z,19.85
2017-09-30T20:23:27.468Z,19.92
2017-09-30T20:25:58.891Z,16.67
2017-09-30T20:28:30.687Z,28.30
2017-09-30T20:31:01.548Z,21.55
2017-09-30T20:33:32.480Z,17.67
2017-09-30T20:36:04.872Z,27.50
2017-09-30T20:38:35.935Z,26.52
2017-09-30T20:41:07.665Z,32.65
2017-09-30T20:43:39.762Z,33.30
2017-09-30T20:46:11.091Z,25.55
2017-09-30T20:48:42.013Z,28.65
2017-09-30T20:51:14.014Z,36.50
2017-09-30T20:53:46.263Z,28.05
2017-09-30T20:56:18.346Z,28.52
2017-09-30T20:58:50.191Z,35.67
2017-09-30T21:01:22.515Z,31.30
2017-09-30T21:03:54.087Z,28.25
2017-09-30T21:06:25.967Z,29.15
2017-09-30T21:08:58.299Z,29.77
2017-09-30T21:11:29.979Z,28.95
2017-09-30T21:14:01.178Z,32.30
2017-09-30T21:16:32.985Z,30.77
2017-09-30T21:19:03.882Z,38.75
2017-09-30T21:21:36.547Z,29.42
2017-09-30T21:24:08.059Z,33.42
2017-09-30T21:26:39.090Z,35.83
2017-09-30T21:29:11.227Z,34.58
2017-09-30T21:31:42.358Z,36.63
2017-09-30T21:34:13.940Z,34.58
2017-09-30T21:36:46.139Z,36.47
2017-09-30T21:39:17.893Z,28.17
2017-09-30T21:41:50.860Z,30.17
2017-09-30T21:44:23.003Z,42.47
2017-09-30T21:46:55.729Z,29.58
2017-09-30T21:49:26.736Z,26.15
2017-09-30T21:51:58.763Z,35.08
2017-09-30T21:54:29.798Z,32.85
2017-09-30T21:57:01.292Z,25.75
2017-09-30T21:59:32.887Z,32.28
2017-09-30T22:02:04.560Z,33.63
2017-09-30T22:04:36.924Z,32.88
2017-09-30T22:07:08.699Z,34.75
2017-09-30T22:09:41.118Z,35.83
2017-09-30T22:12:12.827Z,27.42
2017-09-30T22:14:45.274Z,27.98
2017-09-30T22:17:17.194Z,28.12
2017-09-30T22:19:49.493Z,51.08
2017-09-30T22:22:20.595Z,37.17
2017-09-30T22:24:51.816Z,25.48
2017-09-30T22:27:22.873Z,32.80
2017-09-30T22:29:53.715Z,40.55
2017-09-30T22:32:25.040Z,32.05
2017-09-30T22:34:56.306Z,28.75
2017-09-30T22:37:27.650Z,36.00
2017-09-30T22:39:58.645Z,31.17
2017-09-30T22:42:30.400Z,36.20
2017-09-30T22:45:01.776Z,35.35
2017-09-30T22:47:33.114Z,33.33
2017-09-30T22:50:04.644Z,31.80
2017-09-30T22:52:36.828Z,25.00
2017-09-30T22:55:08.391Z,23.00
2017-09-30T22:57:40.113Z,22.50
2017-09-30T23:00:11.912Z,26.05
2017-09-30T23:02:43.324Z,25.73
2017-09-30T23:05:14.787Z,23.80
2017-09-30T23:07:46.736Z,29.50
2017-09-30T23:10:18.187Z,31.90
2017-09-30T23:12:49.710Z,42.55
2017-09-30T23:15:20.502Z,34.50
2017-09-30T23:17:52.749Z,28.73
2017-09-30T23:20:24.924Z,26.83
2017-09-30T23:22:56.687Z,28.15
2017-09-30T23:25:29.211Z,35.63
2017-09-30T23:28:00.456Z,32.92
2017-09-30T23:30:31.806Z,25.83
2017-09-30T23:33:02.859Z,32.20
2017-09-30T23:35:35.001Z,39.60
2017-09-30T23:38:06.913Z,28.40
2017-09-30T23:40:38.082Z,26.62
2017-09-30T23:43:09.115Z,31.27
2017-09-30T23:45:40.081Z,30.33
2017-09-30T23:48:11.114Z,30.62
2017-09-30T23:50:43.801Z,26.70
2017-09-30T23:53:15.254Z,25.15
2017-09-30T23:55:46.497Z,22.42
2017-09-30T23:58:18.372Z,28.58
